KSNL/SNL METAR and TAF weather

Enter ICAO airport designator
Station Type Date Time Source
KSNL METAR 2020/07/11 22:55 UTC NOAA

KSNL 112255Z AUTO 20009KT 10SM CLR 36/26 A2989 RMK AO2 T03610258


Station Type Date Time Source
KSNL Decoded METAR 2020/07/11 22:55 UTC NOAA

Shawnee, Shawnee Municipal Airport, OK, United States (KSNL) 35-21-26N 096-56-34W
Jul 11, 2020 - 06:55 PM EDT / 2020.07.11 2255 UTC
Wind: from the SSW (200 degrees) at 10 MPH (9 KT):0
Visibility: 10 mile(s):0
Sky conditions: clear
Temperature: 97.0 F (36.1 C)
Heat index: 114.4 F (45.8 C):1
Dew Point: 78.4 F (25.8 C)
Relative Humidity: 55%
Pressure (altimeter): 29.89 in. Hg (1012 hPa)
ob: KSNL 112255Z AUTO 20009KT 10SM CLR 36/26 A2989 RMK AO2 T03610258
cycle: 23

Station Type Date Time Source
KSNL TAF UTC NOAA

Error!

Example: see airport list